Time;durP1;ratioP1;P1;durP2;ratioP2;P2;SDS_P1;SDS_P2;PMS_P1;PMS_P2;Temp;Humidity;BMP_temperature;BMP_pressure;BME280_temperature;BME280_humidity;BME280_pressure;Samples;Min_cycle;Max_cycle;Signal;HPM_P1;HPM_P2
2022/07/19 00:00:34;0.00;0.00;0.62;0.00;0.00;0.62;5.40;4.90;;;30.70;24.30;;;;;;2221140;62;20398;-69
2022/07/19 00:03:21;0.00;0.00;0.62;0.00;0.00;0.62;5.60;4.90;;;30.70;24.40;;;;;;2221705;62;20371;-69
2022/07/19 00:06:06;0.00;0.00;0.62;0.00;0.00;0.62;6.00;4.53;;;30.80;24.40;;;;;;2221826;62;20426;-69
2022/07/19 00:08:51;0.00;0.00;0.62;0.00;0.00;0.62;7.50;5.43;;;30.70;24.40;;;;;;2221722;62;20767;-69
2022/07/19 00:11:36;0.00;0.00;0.62;0.00;0.00;0.62;5.97;5.37;;;30.80;24.50;;;;;;2222863;62;20391;-67
2022/07/19 00:14:21;0.00;0.00;0.62;0.00;0.00;0.62;10.10;5.10;;;30.80;24.50;;;;;;2222510;62;20391;-69
2022/07/19 00:17:07;0.00;0.00;0.62;0.00;0.00;0.62;7.60;5.80;;;30.80;24.50;;;;;;2222239;62;20363;-69
2022/07/19 00:19:53;0.00;0.00;0.62;0.00;0.00;0.62;6.93;5.20;;;30.80;24.50;;;;;;2222610;62;20360;-70
2022/07/19 00:22:38;0.00;0.00;0.62;0.00;0.00;0.62;6.77;5.33;;;30.80;24.50;;;;;;2222079;62;20387;-69
2022/07/19 00:25:23;0.00;0.00;0.62;0.00;0.00;0.62;5.60;5.10;;;30.80;24.60;;;;;;2222278;62;20439;-70
2022/07/19 00:28:08;0.00;0.00;0.62;0.00;0.00;0.62;7.40;4.60;;;30.80;24.60;;;;;;2222451;62;20708;-69
2022/07/19 00:30:53;0.00;0.00;0.62;0.00;0.00;0.62;6.67;4.90;;;30.80;24.50;;;;;;2222171;62;20655;-69
2022/07/19 00:33:37;0.00;0.00;0.62;0.00;0.00;0.62;4.63;4.13;;;30.80;24.50;;;;;;2222799;62;20370;-69
2022/07/19 00:36:24;0.00;0.00;0.62;0.00;0.00;0.62;6.13;4.77;;;30.80;24.50;;;;;;2222577;62;20391;-69
2022/07/19 00:39:08;0.00;0.00;0.62;0.00;0.00;0.62;5.33;4.27;;;30.80;24.60;;;;;;2221956;62;20495;-69
2022/07/19 00:41:53;0.00;0.00;0.62;0.00;0.00;0.62;6.00;4.50;;;30.80;24.60;;;;;;2222434;62;20463;-69
2022/07/19 00:44:38;0.00;0.00;0.62;0.00;0.00;0.62;5.73;5.23;;;30.80;24.70;;;;;;2222356;62;20719;-69
2022/07/19 00:47:24;0.00;0.00;0.62;0.00;0.00;0.62;8.90;5.60;;;30.80;25.00;;;;;;2222231;62;20366;-72
2022/07/19 00:50:10;0.00;0.00;0.62;0.00;0.00;0.62;7.03;4.90;;;30.80;25.10;;;;;;2222318;62;20594;-64
2022/07/19 00:53:02;0.00;0.00;0.62;0.00;0.00;0.62;10.13;5.07;;;30.70;25.00;;;;;;2222120;62;20436;-64
2022/07/19 00:55:47;0.00;0.00;0.62;0.00;0.00;0.62;10.87;5.47;;;30.70;25.10;;;;;;2222135;62;20724;-64
2022/07/19 00:58:33;0.00;0.00;0.62;0.00;0.00;0.62;6.60;5.23;;;30.70;25.10;;;;;;2222346;62;20452;-65
2022/07/19 01:01:18;0.00;0.00;0.62;0.00;0.00;0.62;6.60;4.50;;;30.60;25.00;;;;;;2221824;62;20684;-65
2022/07/19 01:04:03;0.00;0.00;0.62;0.00;0.00;0.62;5.10;4.60;;;30.60;25.10;;;;;;2222316;62;20375;-65
2022/07/19 01:06:48;0.00;0.00;0.62;0.00;0.00;0.62;6.20;4.23;;;30.50;25.20;;;;;;2222060;62;20407;-65
2022/07/19 01:09:37;0.00;0.00;0.62;0.00;0.00;0.62;5.37;4.30;;;30.50;25.20;;;;;;2221959;62;20371;-65
2022/07/19 01:12:22;0.00;0.00;0.62;0.00;0.00;0.62;4.47;4.07;;;30.50;25.20;;;;;;2222435;62;20509;-65
2022/07/19 01:15:16;0.00;0.00;0.62;0.00;0.00;0.62;4.60;4.20;;;30.50;25.20;;;;;;2222111;62;20727;-66
2022/07/19 01:18:01;0.00;0.00;0.62;0.00;0.00;0.62;8.60;5.07;;;30.50;25.20;;;;;;2222377;62;20374;-66
2022/07/19 01:20:45;0.00;0.00;0.62;0.00;0.00;0.62;4.50;4.10;;;30.50;25.20;;;;;;2222247;62;20390;-66
2022/07/19 01:23:31;0.00;0.00;0.62;0.00;0.00;0.62;5.10;4.57;;;30.50;25.20;;;;;;2221783;62;20366;-66
2022/07/19 01:26:17;0.00;0.00;0.62;0.00;0.00;0.62;4.30;3.77;;;30.50;25.20;;;;;;2222358;62;20379;-66
2022/07/19 01:31:51;0.00;0.00;0.62;0.00;0.00;0.62;4.63;4.13;;;30.50;25.20;;;;;;2353446;56;20410;-66
2022/07/19 01:34:36;0.00;0.00;0.62;0.00;0.00;0.62;5.00;3.77;;;30.50;25.20;;;;;;2249643;62;20392;-66
2022/07/19 01:37:20;0.00;0.00;0.62;0.00;0.00;0.62;4.73;4.30;;;30.50;25.20;;;;;;2222602;62;20360;-66
2022/07/19 01:40:10;0.00;0.00;0.62;0.00;0.00;0.62;7.53;4.93;;;30.50;25.20;;;;;;2253424;62;20421;-66
2022/07/19 01:42:55;0.00;0.00;0.62;0.00;0.00;0.62;5.00;4.50;;;30.40;25.10;;;;;;2229993;62;20816;-64
2022/07/19 01:45:40;0.00;0.00;0.62;0.00;0.00;0.62;4.33;3.93;;;30.50;25.20;;;;;;2229227;62;20442;-66
2022/07/19 01:48:25;0.00;0.00;0.62;0.00;0.00;0.62;5.40;4.87;;;30.50;25.20;;;;;;2229777;62;20368;-66
2022/07/19 01:51:10;0.00;0.00;0.62;0.00;0.00;0.62;7.37;4.97;;;30.50;25.20;;;;;;2229550;62;20454;-66
2022/07/19 01:53:55;0.00;0.00;0.62;0.00;0.00;0.62;6.43;4.53;;;30.40;25.20;;;;;;2228596;62;20591;-65
2022/07/19 01:56:43;0.00;0.00;0.62;0.00;0.00;0.62;7.20;5.30;;;30.40;25.40;;;;;;2230218;62;20732;-65
2022/07/19 01:59:28;0.00;0.00;0.62;0.00;0.00;0.62;5.23;4.17;;;30.40;25.60;;;;;;2232352;62;20368;-65
2022/07/19 02:02:14;0.00;0.00;0.62;0.00;0.00;0.62;5.60;4.50;;;30.40;25.60;;;;;;2228827;62;20444;-64
2022/07/19 02:04:58;0.00;0.00;0.62;0.00;0.00;0.62;5.50;4.60;;;30.30;25.50;;;;;;2230180;62;20364;-65
2022/07/19 02:07:43;0.00;0.00;0.62;0.00;0.00;0.62;8.80;4.57;;;30.30;25.60;;;;;;2228950;62;20462;-65
2022/07/19 02:10:28;0.00;0.00;0.62;0.00;0.00;0.62;5.40;4.20;;;30.20;25.60;;;;;;2229737;62;20442;-65
2022/07/19 02:13:14;0.00;0.00;0.62;0.00;0.00;0.62;6.60;4.50;;;30.20;25.60;;;;;;2230121;62;20373;-66
2022/07/19 02:15:59;0.00;0.00;0.62;0.00;0.00;0.62;5.10;4.60;;;30.10;25.50;;;;;;2229239;62;20374;-65
2022/07/19 02:18:44;0.00;0.00;0.62;0.00;0.00;0.62;6.67;4.20;;;30.10;25.70;;;;;;2229854;62;20422;-66
2022/07/19 02:21:28;0.00;0.00;0.62;0.00;0.00;0.62;5.77;4.63;;;30.00;25.70;;;;;;2230049;62;20396;-66
2022/07/19 02:24:14;0.00;0.00;0.62;0.00;0.00;0.62;4.40;4.00;;;30.00;25.70;;;;;;2228430;62;20987;-66
2022/07/19 02:26:59;0.00;0.00;0.62;0.00;0.00;0.62;6.63;4.10;;;29.90;25.70;;;;;;2230073;62;20479;-66
2022/07/19 02:29:45;0.00;0.00;0.62;0.00;0.00;0.62;5.30;4.70;;;30.00;25.80;;;;;;2229031;62;20349;-66
2022/07/19 02:32:30;0.00;0.00;0.62;0.00;0.00;0.62;7.07;4.73;;;29.90;25.80;;;;;;2228476;62;20402;-66
2022/07/19 02:35:16;0.00;0.00;0.62;0.00;0.00;0.62;6.13;4.50;;;29.90;25.80;;;;;;2230217;62;20430;-67
2022/07/19 02:38:00;0.00;0.00;0.62;0.00;0.00;0.62;5.43;4.70;;;29.90;25.90;;;;;;2231326;62;20387;-66
2022/07/19 02:40:45;0.00;0.00;0.62;0.00;0.00;0.62;5.13;4.43;;;29.90;25.90;;;;;;2229210;62;20483;-67
2022/07/19 02:43:30;0.00;0.00;0.62;0.00;0.00;0.62;6.23;4.53;;;29.90;25.90;;;;;;2229949;62;20437;-65
2022/07/19 02:46:18;0.00;0.00;0.62;0.00;0.00;0.62;4.53;4.13;;;29.90;26.00;;;;;;2228853;62;20653;-66
2022/07/19 02:49:03;0.00;0.00;0.62;0.00;0.00;0.62;4.00;3.60;;;29.90;26.00;;;;;;2230240;62;20376;-66
2022/07/19 02:51:47;0.00;0.00;0.62;0.00;0.00;0.62;7.50;4.43;;;29.90;26.00;;;;;;2228862;62;20604;-66
2022/07/19 02:54:32;0.00;0.00;0.62;0.00;0.00;0.62;4.47;4.07;;;29.80;26.00;;;;;;2229678;62;20586;-66
2022/07/19 02:57:17;0.00;0.00;0.62;0.00;0.00;0.62;5.47;3.93;;;29.80;26.00;;;;;;2230122;62;20365;-66
2022/07/19 03:00:04;0.00;0.00;0.62;0.00;0.00;0.62;5.63;4.47;;;29.80;25.90;;;;;;2228956;62;20631;-65
2022/07/19 03:02:50;0.00;0.00;0.62;0.00;0.00;0.62;7.50;4.67;;;29.70;25.90;;;;;;2229068;62;20403;-65
2022/07/19 03:05:35;0.00;0.00;0.62;0.00;0.00;0.62;7.27;4.23;;;29.70;25.80;;;;;;2230039;62;20372;-66
2022/07/19 03:08:19;0.00;0.00;0.62;0.00;0.00;0.62;13.10;4.27;;;29.60;25.80;;;;;;2228499;62;20591;-66
2022/07/19 03:11:04;0.00;0.00;0.62;0.00;0.00;0.62;4.33;3.63;;;29.50;25.70;;;;;;2229993;62;20614;-66
2022/07/19 03:13:49;0.00;0.00;0.62;0.00;0.00;0.62;5.60;4.50;;;29.50;26.20;;;;;;2232196;62;20373;-66
2022/07/19 03:16:34;0.00;0.00;0.62;0.00;0.00;0.62;7.07;4.43;;;29.40;25.70;;;;;;2229571;62;20479;-66
2022/07/19 03:19:20;0.00;0.00;0.62;0.00;0.00;0.62;5.33;4.30;;;29.40;26.30;;;;;;2229971;62;20745;-66
2022/07/19 03:22:05;0.00;0.00;0.62;0.00;0.00;0.62;5.50;4.87;;;29.30;25.80;;;;;;2228639;62;20393;-66
2022/07/19 03:24:51;0.00;0.00;0.62;0.00;0.00;0.62;4.77;4.33;;;29.30;25.90;;;;;;2231897;62;20397;-66
2022/07/19 03:27:36;0.00;0.00;0.62;0.00;0.00;0.62;4.73;3.30;;;29.20;25.90;;;;;;2229931;62;20361;-66
2022/07/19 03:30:21;0.00;0.00;0.62;0.00;0.00;0.62;4.50;3.73;;;29.20;25.90;;;;;;2228846;62;20473;-66
2022/07/19 03:33:07;0.00;0.00;0.62;0.00;0.00;0.62;7.30;4.03;;;29.10;25.90;;;;;;2229774;62;20506;-66
2022/07/19 03:35:53;0.00;0.00;0.62;0.00;0.00;0.62;7.10;4.43;;;29.10;25.90;;;;;;2229972;62;20748;-66
2022/07/19 03:38:38;0.00;0.00;0.62;0.00;0.00;0.62;5.73;4.00;;;29.00;25.90;;;;;;2229601;62;20378;-66
2022/07/19 03:41:22;0.00;0.00;0.62;0.00;0.00;0.62;6.00;4.17;;;29.00;26.00;;;;;;2229899;62;20425;-66
2022/07/19 03:44:07;0.00;0.00;0.62;0.00;0.00;0.62;5.33;3.63;;;29.00;26.10;;;;;;2229225;62;20736;-66
2022/07/19 03:46:52;0.00;0.00;0.62;0.00;0.00;0.62;4.57;3.90;;;28.90;26.10;;;;;;2230226;62;20390;-66
2022/07/19 03:49:36;0.00;0.00;0.62;0.00;0.00;0.62;5.90;4.10;;;28.90;26.20;;;;;;2230561;62;20372;-66
2022/07/19 03:52:23;0.00;0.00;0.62;0.00;0.00;0.62;5.10;4.03;;;28.90;26.30;;;;;;2229510;62;20418;-66
2022/07/19 03:55:09;0.00;0.00;0.62;0.00;0.00;0.62;5.33;4.20;;;28.90;26.30;;;;;;2230505;62;20373;-66
2022/07/19 03:57:54;0.00;0.00;0.62;0.00;0.00;0.62;5.70;3.90;;;28.90;26.30;;;;;;2230620;62;20377;-65
2022/07/19 04:00:39;0.00;0.00;0.62;0.00;0.00;0.62;6.87;4.90;;;28.80;26.30;;;;;;2228934;62;20369;-65
2022/07/19 04:03:24;0.00;0.00;0.62;0.00;0.00;0.62;7.60;4.30;;;28.80;26.30;;;;;;2230453;62;20765;-65
2022/07/19 04:06:11;0.00;0.00;0.62;0.00;0.00;0.62;5.73;3.93;;;28.80;26.40;;;;;;2229540;62;20369;-65
2022/07/19 04:08:57;0.00;0.00;0.62;0.00;0.00;0.62;6.63;4.43;;;28.80;26.40;;;;;;2230120;62;20368;-65
2022/07/19 04:11:42;0.00;0.00;0.62;0.00;0.00;0.62;5.03;3.80;;;28.70;26.40;;;;;;2230467;62;20392;-65
2022/07/19 04:14:27;0.00;0.00;0.62;0.00;0.00;0.62;4.63;3.63;;;28.70;26.50;;;;;;2229523;62;20720;-65
2022/07/19 04:17:11;0.00;0.00;0.62;0.00;0.00;0.62;7.27;3.90;;;28.70;26.50;;;;;;2230210;62;20412;-65
2022/07/19 04:19:56;0.00;0.00;0.62;0.00;0.00;0.62;5.73;3.87;;;28.70;26.50;;;;;;2230583;62;20402;-66
2022/07/19 04:22:40;0.00;0.00;0.62;0.00;0.00;0.62;5.17;3.70;;;28.70;26.50;;;;;;2228988;62;20405;-65
2022/07/19 04:25:27;0.00;0.00;0.62;0.00;0.00;0.62;5.07;3.77;;;28.70;26.50;;;;;;2230346;62;20597;-65
2022/07/19 04:28:11;0.00;0.00;0.62;0.00;0.00;0.62;4.53;3.70;;;28.70;26.50;;;;;;2229146;62;20401;-65
2022/07/19 04:30:56;0.00;0.00;0.62;0.00;0.00;0.62;4.63;3.47;;;28.70;26.50;;;;;;2229557;62;20433;-65
2022/07/19 04:33:41;0.00;0.00;0.62;0.00;0.00;0.62;7.50;3.67;;;28.70;26.50;;;;;;2230026;62;20385;-65
2022/07/19 04:36:25;0.00;0.00;0.62;0.00;0.00;0.62;6.43;4.53;;;28.70;26.50;;;;;;2229394;62;20377;-65
2022/07/19 04:39:10;0.00;0.00;0.62;0.00;0.00;0.62;4.53;3.17;;;28.70;26.50;;;;;;2230169;62;20410;-65
2022/07/19 04:41:56;0.00;0.00;0.62;0.00;0.00;0.62;4.87;4.37;;;28.70;26.60;;;;;;2230130;62;20666;-65
2022/07/19 04:44:41;0.00;0.00;0.62;0.00;0.00;0.62;5.60;4.00;;;28.70;26.60;;;;;;2229084;62;20386;-65
2022/07/19 04:47:25;0.00;0.00;0.62;0.00;0.00;0.62;5.10;3.60;;;28.80;26.70;;;;;;2230413;62;20630;-66
2022/07/19 04:50:10;0.00;0.00;0.62;0.00;0.00;0.62;6.80;3.70;;;28.80;26.70;;;;;;2229375;62;20423;-66
2022/07/19 04:52:55;0.00;0.00;0.62;0.00;0.00;0.62;4.30;3.30;;;28.80;26.70;;;;;;2229992;62;20385;-66
2022/07/19 04:55:39;0.00;0.00;0.62;0.00;0.00;0.62;5.70;4.03;;;28.80;26.70;;;;;;2232555;62;20737;-66
2022/07/19 04:58:25;0.00;0.00;0.62;0.00;0.00;0.62;6.70;3.60;;;28.80;26.70;;;;;;2229255;62;20415;-66
2022/07/19 05:01:10;0.00;0.00;0.62;0.00;0.00;0.62;5.17;3.50;;;28.90;26.70;;;;;;2232217;62;20429;-66
2022/07/19 05:03:55;0.00;0.00;0.62;0.00;0.00;0.62;5.23;3.30;;;28.90;26.70;;;;;;2230202;62;20373;-66
2022/07/19 05:06:40;0.00;0.00;0.62;0.00;0.00;0.62;5.47;3.33;;;28.90;26.70;;;;;;2229202;62;20390;-66
2022/07/19 05:09:26;0.00;0.00;0.62;0.00;0.00;0.62;4.40;3.63;;;28.90;26.60;;;;;;2230441;62;20435;-66
2022/07/19 05:12:10;0.00;0.00;0.62;0.00;0.00;0.62;4.73;3.30;;;28.90;26.60;;;;;;2230156;62;20381;-66
2022/07/19 05:14:58;0.00;0.00;0.62;0.00;0.00;0.62;4.00;2.60;;;29.00;26.60;;;;;;2229850;62;20482;-66
2022/07/19 05:17:43;0.00;0.00;0.62;0.00;0.00;0.62;4.10;3.40;;;29.00;26.60;;;;;;2230467;62;20465;-66
2022/07/19 05:20:27;0.00;0.00;0.62;0.00;0.00;0.62;4.73;3.30;;;29.00;26.60;;;;;;2229169;62;20365;-66
2022/07/19 05:23:12;0.00;0.00;0.62;0.00;0.00;0.62;5.13;3.97;;;29.00;26.50;;;;;;2229890;62;20841;-66
2022/07/19 05:25:57;0.00;0.00;0.62;0.00;0.00;0.62;4.07;3.20;;;29.10;26.60;;;;;;2230219;62;20362;-66
2022/07/19 05:28:42;0.00;0.00;0.62;0.00;0.00;0.62;5.83;4.20;;;29.10;26.70;;;;;;2229188;62;20368;-66
2022/07/19 05:31:28;0.00;0.00;0.62;0.00;0.00;0.62;5.90;3.97;;;29.10;26.60;;;;;;2230154;62;20602;-66
2022/07/19 05:34:13;0.00;0.00;0.62;0.00;0.00;0.62;5.17;4.20;;;29.10;26.70;;;;;;2230223;62;20463;-66
2022/07/19 05:36:57;0.00;0.00;0.62;0.00;0.00;0.62;5.30;3.83;;;29.10;26.70;;;;;;2270401;59;20424;-65
2022/07/19 05:39:42;0.00;0.00;0.62;0.00;0.00;0.62;3.67;3.27;;;29.10;26.60;;;;;;2229890;62;20368;-66
2022/07/19 05:42:27;0.00;0.00;0.62;0.00;0.00;0.62;6.30;4.00;;;29.20;26.70;;;;;;2228408;62;20392;-66
2022/07/19 05:45:11;0.00;0.00;0.62;0.00;0.00;0.62;6.90;4.10;;;29.20;26.70;;;;;;2229937;62;20380;-66
2022/07/19 05:47:57;0.00;0.00;0.62;0.00;0.00;0.62;5.00;4.07;;;29.20;26.70;;;;;;2232476;62;20350;-66
2022/07/19 05:50:42;0.00;0.00;0.62;0.00;0.00;0.62;6.37;4.00;;;29.20;26.60;;;;;;2229025;62;20376;-66
2022/07/19 05:53:28;0.00;0.00;0.62;0.00;0.00;0.62;10.00;3.83;;;29.20;26.40;;;;;;2232308;62;20741;-66
2022/07/19 05:56:13;0.00;0.00;0.62;0.00;0.00;0.62;7.37;4.13;;;29.10;26.30;;;;;;2229751;62;20394;-65
2022/07/19 05:58:58;0.00;0.00;0.62;0.00;0.00;0.62;6.20;3.77;;;29.10;26.10;;;;;;2229012;62;20414;-65
2022/07/19 06:01:43;0.00;0.00;0.62;0.00;0.00;0.62;5.93;3.83;;;29.10;26.00;;;;;;2229980;62;20408;-65
2022/07/19 06:04:29;0.00;0.00;0.62;0.00;0.00;0.62;7.90;4.00;;;29.00;25.90;;;;;;2229115;62;20369;-65
2022/07/19 06:07:14;0.00;0.00;0.62;0.00;0.00;0.62;5.43;4.07;;;29.00;25.90;;;;;;2229777;62;20729;-66
2022/07/19 06:09:59;0.00;0.00;0.62;0.00;0.00;0.62;4.87;3.57;;;29.00;25.90;;;;;;2230141;62;20402;-66
2022/07/19 06:12:44;0.00;0.00;0.62;0.00;0.00;0.62;7.17;3.70;;;28.90;25.80;;;;;;2229219;62;20385;-66
2022/07/19 06:15:29;0.00;0.00;0.62;0.00;0.00;0.62;9.53;3.30;;;28.90;25.90;;;;;;2229815;62;20368;-65
2022/07/19 06:18:14;0.00;0.00;0.62;0.00;0.00;0.62;5.40;3.30;;;28.90;26.00;;;;;;2228563;62;20382;-66
2022/07/19 06:21:01;0.00;0.00;0.62;0.00;0.00;0.62;4.20;2.93;;;28.80;26.00;;;;;;2224922;62;20386;-65
2022/07/19 06:23:46;0.00;0.00;0.62;0.00;0.00;0.62;6.07;3.60;;;28.80;26.00;;;;;;2225812;62;20371;-65
2022/07/19 06:26:31;0.00;0.00;0.62;0.00;0.00;0.62;6.83;3.40;;;28.80;26.00;;;;;;2225139;62;20377;-67
2022/07/19 06:29:16;0.00;0.00;0.62;0.00;0.00;0.62;4.20;3.00;;;28.80;26.00;;;;;;2225272;62;20366;-66
2022/07/19 06:32:01;0.00;0.00;0.62;0.00;0.00;0.62;5.00;2.97;;;28.80;26.10;;;;;;2226110;62;20682;-67
2022/07/19 06:34:46;0.00;0.00;0.62;0.00;0.00;0.62;5.53;3.10;;;28.80;26.10;;;;;;2225207;62;20373;-67
2022/07/19 06:37:32;0.00;0.00;0.62;0.00;0.00;0.62;6.10;3.20;;;28.80;26.10;;;;;;2225616;62;20370;-66
2022/07/19 06:40:17;0.00;0.00;0.62;0.00;0.00;0.62;7.50;3.93;;;28.80;26.10;;;;;;2225917;62;20733;-69
2022/07/19 06:43:02;0.00;0.00;0.62;0.00;0.00;0.62;5.30;3.03;;;28.80;26.10;;;;;;2224698;62;20658;-70
2022/07/19 06:45:47;0.00;0.00;0.62;0.00;0.00;0.62;3.50;3.07;;;28.80;26.10;;;;;;2226084;62;20367;-67
2022/07/19 06:48:32;0.00;0.00;0.62;0.00;0.00;0.62;5.03;2.83;;;28.80;26.20;;;;;;2225567;62;20593;-74
2022/07/19 06:51:17;0.00;0.00;0.62;0.00;0.00;0.62;8.03;3.30;;;28.80;26.20;;;;;;2225622;62;20439;-69
2022/07/19 06:54:03;0.00;0.00;0.62;0.00;0.00;0.62;6.10;3.33;;;28.80;26.10;;;;;;2226302;62;20411;-67
2022/07/19 06:56:48;0.00;0.00;0.62;0.00;0.00;0.62;3.73;2.67;;;28.80;26.20;;;;;;2224692;62;20370;-70
2022/07/19 06:59:33;0.00;0.00;0.62;0.00;0.00;0.62;5.33;3.10;;;28.80;26.20;;;;;;2225730;62;20410;-69
2022/07/19 07:02:18;0.00;0.00;0.62;0.00;0.00;0.62;4.60;3.20;;;28.80;26.30;;;;;;2225891;62;20456;-68
2022/07/19 07:05:04;0.00;0.00;0.62;0.00;0.00;0.62;3.40;2.80;;;28.80;26.30;;;;;;2224672;62;20586;-69
2022/07/19 07:07:51;0.00;0.00;0.62;0.00;0.00;0.62;5.20;3.10;;;28.80;26.30;;;;;;2225939;62;20374;-68
2022/07/19 07:10:39;0.00;0.00;0.62;0.00;0.00;0.62;4.40;3.43;;;28.90;26.40;;;;;;2225905;62;20361;-68
2022/07/19 07:13:24;0.00;0.00;0.62;0.00;0.00;0.62;4.90;3.20;;;28.90;26.40;;;;;;2225742;62;20358;-68
2022/07/19 07:16:09;0.00;0.00;0.62;0.00;0.00;0.62;6.10;3.93;;;28.90;26.40;;;;;;2226130;62;20542;-69
2022/07/19 07:18:54;0.00;0.00;0.62;0.00;0.00;0.62;4.17;2.50;;;28.90;26.30;;;;;;2225001;62;20651;-67
2022/07/19 07:21:39;0.00;0.00;0.62;0.00;0.00;0.62;3.83;3.27;;;29.00;26.30;;;;;;2225581;62;20473;-68
2022/07/19 07:24:24;0.00;0.00;0.62;0.00;0.00;0.62;4.47;2.70;;;29.00;26.20;;;;;;2226005;62;20503;-69
2022/07/19 07:27:10;0.00;0.00;0.62;0.00;0.00;0.62;3.90;2.87;;;29.00;26.20;;;;;;2225103;62;20369;-70
2022/07/19 07:29:55;0.00;0.00;0.62;0.00;0.00;0.62;4.47;2.90;;;29.10;26.30;;;;;;2226128;62;20398;-69
2022/07/19 07:32:40;0.00;0.00;0.62;0.00;0.00;0.62;8.77;3.30;;;29.10;26.30;;;;;;2228236;62;20393;-67
2022/07/19 07:35:25;0.00;0.00;0.62;0.00;0.00;0.62;4.77;2.60;;;29.10;26.30;;;;;;2225879;62;20366;-68
2022/07/19 07:38:09;0.00;0.00;0.62;0.00;0.00;0.62;4.53;3.27;;;29.20;26.30;;;;;;2226269;62;20382;-67
2022/07/19 07:40:55;0.00;0.00;0.62;0.00;0.00;0.62;5.73;3.50;;;29.20;26.30;;;;;;2224824;62;20464;-71
2022/07/19 07:43:41;0.00;0.00;0.62;0.00;0.00;0.62;4.47;3.27;;;29.30;26.40;;;;;;2225779;62;20404;-67
2022/07/19 07:46:26;0.00;0.00;0.62;0.00;0.00;0.62;4.53;3.20;;;29.30;26.40;;;;;;2226152;62;20370;-66
2022/07/19 07:49:11;0.00;0.00;0.62;0.00;0.00;0.62;4.40;3.03;;;29.30;26.40;;;;;;2224839;62;20371;-65
2022/07/19 07:51:56;0.00;0.00;0.62;0.00;0.00;0.62;4.67;3.67;;;29.30;26.40;;;;;;2225952;62;20451;-69
2022/07/19 07:54:41;0.00;0.00;0.62;0.00;0.00;0.62;4.73;3.27;;;29.40;26.50;;;;;;2226066;62;20423;-69
2022/07/19 07:57:26;0.00;0.00;0.62;0.00;0.00;0.62;4.40;3.03;;;29.40;26.50;;;;;;2224615;62;20585;-68
2022/07/19 08:00:13;0.00;0.00;0.62;0.00;0.00;0.62;3.53;3.10;;;29.50;26.50;;;;;;2226017;62;20397;-71
2022/07/19 08:02:59;0.00;0.00;0.62;0.00;0.00;0.62;4.57;2.83;;;29.50;26.60;;;;;;2225004;62;20406;-66
2022/07/19 08:05:47;0.00;0.00;0.62;0.00;0.00;0.62;3.80;3.00;;;29.50;26.60;;;;;;2225621;62;20370;-68
2022/07/19 08:08:32;0.00;0.00;0.62;0.00;0.00;0.62;4.90;3.00;;;29.50;26.60;;;;;;2226058;62;20370;-69
2022/07/19 08:11:16;0.00;0.00;0.62;0.00;0.00;0.62;5.73;3.20;;;29.60;26.70;;;;;;2224457;62;20435;-71
2022/07/19 08:14:02;0.00;0.00;0.62;0.00;0.00;0.62;3.13;2.83;;;29.70;26.70;;;;;;2225726;62;20381;-69
2022/07/19 08:16:48;0.00;0.00;0.62;0.00;0.00;0.62;3.30;3.00;;;29.70;26.70;;;;;;2225976;62;20384;-69
2022/07/19 08:19:33;0.00;0.00;0.62;0.00;0.00;0.62;2.63;2.43;;;29.70;26.70;;;;;;2224884;62;20458;-71
2022/07/19 08:22:20;0.00;0.00;0.62;0.00;0.00;0.62;4.10;3.17;;;29.70;26.60;;;;;;2225873;62;20402;-71
2022/07/19 08:25:07;0.00;0.00;0.62;0.00;0.00;0.62;3.87;3.30;;;29.80;26.70;;;;;;2224928;62;20370;-68
2022/07/19 08:27:52;0.00;0.00;0.62;0.00;0.00;0.62;3.30;2.60;;;29.80;26.60;;;;;;2225610;62;20820;-68
2022/07/19 08:30:37;0.00;0.00;0.62;0.00;0.00;0.62;3.50;3.20;;;29.80;26.60;;;;;;2225567;62;20438;-64
2022/07/19 08:33:23;0.00;0.00;0.62;0.00;0.00;0.62;3.63;3.00;;;29.80;26.60;;;;;;2224995;62;20425;-70
2022/07/19 08:36:09;0.00;0.00;0.62;0.00;0.00;0.62;3.10;2.77;;;29.90;26.70;;;;;;2222514;62;20700;-66
2022/07/19 08:38:54;0.00;0.00;0.62;0.00;0.00;0.62;6.00;2.97;;;29.90;26.60;;;;;;2226002;62;20858;-66
2022/07/19 08:41:41;0.00;0.00;0.62;0.00;0.00;0.62;3.60;2.70;;;30.00;26.60;;;;;;2225292;62;20394;-67
2022/07/19 08:44:28;0.00;0.00;0.62;0.00;0.00;0.62;3.77;2.60;;;30.00;26.40;;;;;;2226533;62;20366;-68
2022/07/19 08:47:13;0.00;0.00;0.62;0.00;0.00;0.62;2.80;2.40;;;30.00;26.40;;;;;;2400385;46;20389;-68
2022/07/19 08:50:01;0.00;0.00;0.62;0.00;0.00;0.62;2.40;2.20;;;30.00;26.30;;;;;;2226016;62;20378;-69
2022/07/19 08:52:47;0.00;0.00;0.62;0.00;0.00;0.62;5.10;3.43;;;30.00;26.30;;;;;;2226604;62;20390;-71
2022/07/19 08:55:32;0.00;0.00;0.62;0.00;0.00;0.62;2.80;2.30;;;30.10;26.30;;;;;;2225726;62;20465;-65
2022/07/19 08:58:17;0.00;0.00;0.62;0.00;0.00;0.62;4.20;3.20;;;30.10;26.20;;;;;;2226302;62;20440;-65
2022/07/19 09:01:01;0.00;0.00;0.62;0.00;0.00;0.62;2.87;2.57;;;30.20;26.20;;;;;;2226333;62;20390;-69
2022/07/19 09:04:11;0.00;0.00;0.62;0.00;0.00;0.62;4.40;2.80;;;30.20;26.20;;;;;;2225229;62;20386;-68
2022/07/19 09:06:58;0.00;0.00;0.62;0.00;0.00;0.62;3.33;2.77;;;30.20;26.00;;;;;;2226442;62;20398;-66
2022/07/19 09:09:43;0.00;0.00;0.62;0.00;0.00;0.62;4.53;3.30;;;30.20;25.90;;;;;;2225525;62;20373;-67
2022/07/19 09:12:28;0.00;0.00;0.62;0.00;0.00;0.62;4.40;3.10;;;30.30;25.70;;;;;;2226158;62;20762;-67
2022/07/19 09:15:13;0.00;0.00;0.62;0.00;0.00;0.62;3.17;2.60;;;30.30;25.60;;;;;;2226591;62;20737;-67
2022/07/19 09:18:07;0.00;0.00;0.62;0.00;0.00;0.62;3.20;2.60;;;30.30;25.40;;;;;;2225515;62;20625;-68
2022/07/19 09:20:54;0.00;0.00;0.62;0.00;0.00;0.62;3.10;2.50;;;30.30;25.40;;;;;;2226352;62;20779;-66
2022/07/19 09:23:41;0.00;0.00;0.62;0.00;0.00;0.62;4.80;3.30;;;30.30;25.40;;;;;;2226480;62;20439;-70
2022/07/19 09:26:25;0.00;0.00;0.62;0.00;0.00;0.62;3.20;2.80;;;30.40;25.20;;;;;;2226124;62;20374;-66
2022/07/19 09:29:17;0.00;0.00;0.62;0.00;0.00;0.62;3.73;3.30;;;30.40;25.10;;;;;;2226370;62;20370;-67
2022/07/19 09:32:09;0.00;0.00;0.62;0.00;0.00;0.62;3.00;2.70;;;30.40;25.10;;;;;;2225314;62;20466;-65
2022/07/19 09:34:58;0.00;0.00;0.62;0.00;0.00;0.62;2.93;2.37;;;30.50;25.20;;;;;;2226109;62;20358;-67
2022/07/19 09:37:43;0.00;0.00;0.62;0.00;0.00;0.62;5.90;3.10;;;30.50;25.20;;;;;;2226664;62;20382;-66
2022/07/19 09:40:31;0.00;0.00;0.62;0.00;0.00;0.62;2.50;2.30;;;30.50;25.10;;;;;;2225197;62;20402;-68
2022/07/19 09:43:18;0.00;0.00;0.62;0.00;0.00;0.62;3.43;2.67;;;30.50;25.20;;;;;;2226233;62;20402;-67
2022/07/19 09:46:03;0.00;0.00;0.62;0.00;0.00;0.62;3.17;2.87;;;30.60;24.80;;;;;;2225754;62;20374;-67
2022/07/19 09:48:48;0.00;0.00;0.62;0.00;0.00;0.62;3.90;3.13;;;30.60;24.80;;;;;;2226056;62;20733;-66
2022/07/19 09:51:34;0.00;0.00;0.62;0.00;0.00;0.62;4.83;2.80;;;30.60;24.60;;;;;;2226448;62;20389;-67
2022/07/19 09:54:22;0.00;0.00;0.62;0.00;0.00;0.62;3.17;2.67;;;30.60;24.40;;;;;;2225393;62;20473;-65
2022/07/19 09:57:09;0.00;0.00;0.62;0.00;0.00;0.62;2.97;2.67;;;30.60;24.40;;;;;;2226087;62;20381;-67
2022/07/19 09:59:57;0.00;0.00;0.62;0.00;0.00;0.62;4.83;2.30;;;30.70;24.40;;;;;;2226436;62;20375;-67
2022/07/19 10:02:44;0.00;0.00;0.62;0.00;0.00;0.62;2.80;2.50;;;30.70;24.40;;;;;;2224902;62;20429;-66
2022/07/19 10:05:30;0.00;0.00;0.62;0.00;0.00;0.62;2.93;2.17;;;30.80;24.30;;;;;;2226520;62;20370;-67
2022/07/19 10:08:15;0.00;0.00;0.62;0.00;0.00;0.62;3.80;2.30;;;30.80;24.20;;;;;;2226077;62;20399;-68
2022/07/19 10:11:00;0.00;0.00;0.62;0.00;0.00;0.62;2.77;2.43;;;30.80;24.00;;;;;;2225889;62;20374;-68
2022/07/19 10:13:49;0.00;0.00;0.62;0.00;0.00;0.62;2.60;2.20;;;30.80;24.20;;;;;;2226411;62;20385;-68
2022/07/19 10:16:50;0.00;0.00;0.62;0.00;0.00;0.62;3.43;2.23;;;30.80;24.20;;;;;;2225356;62;20389;-67
2022/07/19 10:19:39;0.00;0.00;0.62;0.00;0.00;0.62;5.00;2.60;;;30.90;24.20;;;;;;2226016;62;20428;-67
2022/07/19 10:22:26;0.00;0.00;0.62;0.00;0.00;0.62;3.00;2.10;;;30.90;24.20;;;;;;2226077;62;20455;-67
2022/07/19 10:25:13;0.00;0.00;0.62;0.00;0.00;0.62;5.73;2.63;;;30.90;24.20;;;;;;2225158;62;20797;-67
2022/07/19 10:27:58;0.00;0.00;0.62;0.00;0.00;0.62;3.10;2.00;;;31.00;24.20;;;;;;2226171;62;20422;-67
2022/07/19 10:30:44;0.00;0.00;0.62;0.00;0.00;0.62;5.10;2.77;;;31.00;24.10;;;;;;2225215;62;20395;-68
2022/07/19 10:33:32;0.00;0.00;0.62;0.00;0.00;0.62;3.57;3.03;;;31.00;23.80;;;;;;2225931;62;20418;-66
2022/07/19 10:36:49;0.00;0.00;0.62;0.00;0.00;0.62;3.50;2.20;;;31.10;23.70;;;;;;2226375;62;20366;-66
2022/07/19 10:39:35;0.00;0.00;0.62;0.00;0.00;0.62;3.67;2.30;;;31.00;23.90;;;;;;2212865;62;20395;-67
2022/07/19 10:42:21;0.00;0.00;0.62;0.00;0.00;0.62;2.70;2.10;;;31.10;24.00;;;;;;2225900;62;20406;-68
2022/07/19 10:45:14;0.00;0.00;0.62;0.00;0.00;0.62;3.33;2.10;;;31.10;23.80;;;;;;2226351;62;20369;-66
2022/07/19 10:48:13;0.00;0.00;0.62;0.00;0.00;0.62;2.70;2.10;;;31.10;23.80;;;;;;2225912;62;20373;-67
2022/07/19 10:50:58;0.00;0.00;0.62;0.00;0.00;0.62;2.80;2.40;;;31.20;24.00;;;;;;2226194;62;20431;-66
2022/07/19 10:54:06;0.00;0.00;0.62;0.00;0.00;0.62;2.60;2.20;;;31.20;23.70;;;;;;2225240;62;20743;-67
2022/07/19 10:56:58;0.00;0.00;0.62;0.00;0.00;0.62;3.03;2.37;;;31.20;23.90;;;;;;2226007;62;20585;-69